createdAt,value
2023-02-18T00:01:18.955Z,7.37
2023-02-18T00:03:47.482Z,7.20
2023-02-18T00:06:17.319Z,6.97
2023-02-18T00:08:46.701Z,7.83
2023-02-18T00:11:15.325Z,8.90
2023-02-18T00:13:43.672Z,7.93
2023-02-18T00:16:13.355Z,7.03
2023-02-18T00:18:42.758Z,7.60
2023-02-18T00:21:10.753Z,11.53
2023-02-18T00:23:38.730Z,7.40
2023-02-18T00:26:08.996Z,6.00
2023-02-18T00:28:37.630Z,6.50
2023-02-18T00:31:09.374Z,7.77
2023-02-18T00:33:37.514Z,12.17
2023-02-18T00:36:09.543Z,7.00
2023-02-18T00:38:38.097Z,7.67
2023-02-18T00:41:06.773Z,8.90
2023-02-18T00:43:35.267Z,8.00
2023-02-18T00:46:03.685Z,8.07
2023-02-18T00:48:32.677Z,10.10
2023-02-18T00:51:01.633Z,8.60
2023-02-18T00:53:31.282Z,8.63
2023-02-18T00:55:59.668Z,7.07
2023-02-18T00:58:27.838Z,10.40
2023-02-18T01:00:56.274Z,9.83
2023-02-18T01:03:25.738Z,8.33
2023-02-18T01:05:53.871Z,8.50
2023-02-18T01:08:22.734Z,7.20
2023-02-18T01:10:55.956Z,8.77
2023-02-18T01:13:24.449Z,5.70
2023-02-18T01:15:53.081Z,6.13
2023-02-18T01:18:21.387Z,5.97
2023-02-18T01:20:49.656Z,7.53
2023-02-18T01:23:17.683Z,6.00
2023-02-18T01:25:46.187Z,5.60
2023-02-18T01:28:16.374Z,5.37
2023-02-18T01:30:45.432Z,8.20
2023-02-18T01:33:13.479Z,5.43
2023-02-18T01:35:42.180Z,9.17
2023-02-18T01:38:10.795Z,6.60
2023-02-18T01:40:47.142Z,6.20
2023-02-18T01:43:16.963Z,7.20
2023-02-18T01:46:13.364Z,7.10
2023-02-18T01:48:44.542Z,6.40
2023-02-18T01:51:17.312Z,12.20
2023-02-18T01:53:51.043Z,11.33
2023-02-18T01:56:25.154Z,4.20
2023-02-18T01:58:56.718Z,5.20
2023-02-18T02:01:25.275Z,2.80
2023-02-18T02:03:53.309Z,3.73
2023-02-18T02:06:23.720Z,6.03
2023-02-18T02:08:55.274Z,6.03
2023-02-18T02:11:33.427Z,5.67
2023-02-18T02:14:23.504Z,5.40
2023-02-18T02:17:04.079Z,3.97
2023-02-18T02:20:11.818Z,5.17
2023-02-18T02:23:00.954Z,6.10
2023-02-18T02:25:47.527Z,5.00
2023-02-18T02:28:54.544Z,5.20
2023-02-18T02:31:43.722Z,5.03
2023-02-18T02:34:43.926Z,5.70
2023-02-18T02:37:17.360Z,9.17
2023-02-18T02:39:58.789Z,5.57
2023-02-18T02:42:35.824Z,11.23
2023-02-18T02:45:11.280Z,6.73
2023-02-18T02:47:46.122Z,5.93
2023-02-18T02:50:22.393Z,5.60
2023-02-18T02:52:58.117Z,9.90
2023-02-18T02:55:26.469Z,6.73
2023-02-18T02:57:57.255Z,7.20
2023-02-18T03:00:40.016Z,8.07
2023-02-18T03:03:29.382Z,6.80
2023-02-18T03:06:12.412Z,11.20
2023-02-18T03:08:48.155Z,8.40
2023-02-18T03:11:18.078Z,12.13
2023-02-18T03:13:56.673Z,8.87
2023-02-18T03:16:35.601Z,15.70
2023-02-18T03:19:11.012Z,8.97
2023-02-18T03:21:45.740Z,9.03
2023-02-18T03:24:17.891Z,7.67
2023-02-18T03:26:50.569Z,12.60
2023-02-18T03:29:20.854Z,8.90
2023-02-18T03:31:55.068Z,11.33
2023-02-18T03:34:27.943Z,8.07
2023-02-18T03:36:59.180Z,13.17
2023-02-18T03:39:29.533Z,4.90
2023-02-18T03:41:57.655Z,7.93
2023-02-18T03:44:26.141Z,7.63
2023-02-18T03:46:54.722Z,7.47
2023-02-18T03:49:23.014Z,5.87
2023-02-18T03:51:51.046Z,3.27
2023-02-18T03:54:21.519Z,4.50
2023-02-18T03:56:49.846Z,5.33
2023-02-18T03:59:17.892Z,6.80
2023-02-18T04:01:45.916Z,3.00
2023-02-18T04:04:13.894Z,4.60
2023-02-18T04:06:41.896Z,3.80
2023-02-18T04:09:09.941Z,2.87
2023-02-18T04:11:40.922Z,2.00
2023-02-18T04:14:09.658Z,2.80
2023-02-18T04:16:37.694Z,3.40
2023-02-18T04:19:05.737Z,1.53
2023-02-18T04:21:33.964Z,2.33
2023-02-18T04:24:02.244Z,1.57
2023-02-18T04:26:30.910Z,1.60
2023-02-18T04:29:00.236Z,2.10
2023-02-18T04:31:28.523Z,2.10
2023-02-18T04:33:56.641Z,1.20
2023-02-18T04:36:24.685Z,3.00
2023-02-18T04:38:52.699Z,1.10
2023-02-18T04:41:20.702Z,2.10
2023-02-18T04:43:48.672Z,1.70
2023-02-18T04:46:18.124Z,2.73
2023-02-18T04:48:46.166Z,2.10
2023-02-18T04:51:14.198Z,5.03
2023-02-18T04:53:42.179Z,1.20
2023-02-18T04:56:10.322Z,1.13
2023-02-18T04:58:38.579Z,1.10
2023-02-18T05:01:06.681Z,0.90
2023-02-18T05:03:36.062Z,2.50
2023-02-18T05:06:04.527Z,1.37
2023-02-18T05:08:32.534Z,1.53
2023-02-18T05:11:00.633Z,2.37
2023-02-18T05:13:31.172Z,2.60
2023-02-18T05:15:59.179Z,1.63
2023-02-18T05:18:27.239Z,1.17
2023-02-18T05:20:56.649Z,4.20
2023-02-18T05:23:25.893Z,2.07
2023-02-18T05:25:53.944Z,1.37
2023-02-18T05:28:21.978Z,1.07
2023-02-18T05:30:50.041Z,1.30
2023-02-18T05:33:18.036Z,1.60
2023-02-18T05:35:46.004Z,1.20
2023-02-18T05:38:15.437Z,0.90
2023-02-18T05:40:43.413Z,0.77
2023-02-18T05:43:11.386Z,1.13
2023-02-18T05:45:39.461Z,1.40
2023-02-18T05:48:07.530Z,1.60
2023-02-18T05:50:35.740Z,1.53
2023-02-18T05:53:03.773Z,1.53
2023-02-18T05:55:33.184Z,1.37
2023-02-18T05:58:01.200Z,2.70
2023-02-18T06:00:30.223Z,2.30
2023-02-18T06:02:58.550Z,1.20
2023-02-18T06:05:26.808Z,3.93
2023-02-18T06:07:56.627Z,3.07
2023-02-18T06:10:24.814Z,1.40
2023-02-18T06:12:54.152Z,1.47
2023-02-18T06:15:22.130Z,2.60
2023-02-18T06:17:50.148Z,1.93
2023-02-18T06:20:18.231Z,5.63
2023-02-18T06:22:46.282Z,4.73
2023-02-18T06:25:14.337Z,2.13
2023-02-18T06:27:42.315Z,2.70
2023-02-18T06:30:12.565Z,1.93
2023-02-18T06:32:42.145Z,2.47
2023-02-18T06:35:10.286Z,2.10
2023-02-18T06:37:38.320Z,1.30
2023-02-18T06:40:07.977Z,1.60
2023-02-18T06:42:37.549Z,2.60
2023-02-18T06:45:06.674Z,2.33
2023-02-18T06:47:36.287Z,1.13
2023-02-18T06:50:05.015Z,2.13
2023-02-18T06:52:34.551Z,1.77
2023-02-18T06:55:02.509Z,1.50
2023-02-18T06:57:30.606Z,1.20
2023-02-18T06:59:58.829Z,1.40
2023-02-18T07:02:26.793Z,1.53
2023-02-18T07:04:56.164Z,3.40
2023-02-18T07:07:24.184Z,1.03
2023-02-18T07:09:52.175Z,1.70
2023-02-18T07:12:20.204Z,1.33
2023-02-18T07:14:48.188Z,1.17
2023-02-18T07:17:16.226Z,2.53
2023-02-18T07:19:44.282Z,1.10
2023-02-18T07:22:13.730Z,1.50
2023-02-18T07:24:41.753Z,1.10
2023-02-18T07:27:11.099Z,1.20
2023-02-18T07:29:39.082Z,1.43
2023-02-18T07:32:07.180Z,1.30
2023-02-18T07:34:35.218Z,1.10
2023-02-18T07:37:04.826Z,1.43
2023-02-18T07:39:34.129Z,1.87
2023-02-18T07:42:03.114Z,1.67
2023-02-18T07:44:33.939Z,1.43
2023-02-18T07:47:02.010Z,2.20
2023-02-18T07:49:30.175Z,1.47
2023-02-18T07:51:58.168Z,1.30
2023-02-18T07:54:26.135Z,1.90
2023-02-18T07:56:55.842Z,1.77
2023-02-18T07:59:23.809Z,1.30
2023-02-18T08:01:51.875Z,1.10
2023-02-18T08:04:20.031Z,1.20
2023-02-18T08:06:49.739Z,1.10
2023-02-18T08:09:18.982Z,1.10
2023-02-18T08:11:46.942Z,0.80
2023-02-18T08:14:18.946Z,3.13
2023-02-18T08:16:47.151Z,1.33
2023-02-18T08:19:15.171Z,3.63
2023-02-18T08:21:43.318Z,4.87
2023-02-18T08:24:11.275Z,2.87
2023-02-18T08:26:46.123Z,3.23
2023-02-18T08:29:27.555Z,1.27
2023-02-18T08:31:57.304Z,3.43
2023-02-18T08:34:25.517Z,1.27
2023-02-18T08:36:53.698Z,2.47
2023-02-18T08:39:21.688Z,1.30
2023-02-18T08:41:49.763Z,2.33
2023-02-18T08:44:17.690Z,2.67
2023-02-18T08:46:48.363Z,2.80
2023-02-18T08:49:16.356Z,1.83
2023-02-18T08:51:44.713Z,1.60
2023-02-18T08:54:12.681Z,3.13
2023-02-18T08:56:40.696Z,2.83
2023-02-18T08:59:08.757Z,3.77
2023-02-18T09:01:36.815Z,4.10
2023-02-18T09:04:06.542Z,1.10
2023-02-18T09:06:38.754Z,4.80
2023-02-18T09:09:08.148Z,8.57
2023-02-18T09:11:36.159Z,1.13
2023-02-18T09:14:04.231Z,1.83
2023-02-18T09:16:32.214Z,4.73
2023-02-18T09:19:00.240Z,3.90
2023-02-18T09:21:29.657Z,1.80
2023-02-18T09:23:58.461Z,1.27
2023-02-18T09:26:27.291Z,2.03
2023-02-18T09:28:57.056Z,3.37
2023-02-18T09:31:28.206Z,3.77
2023-02-18T09:33:58.156Z,2.57
2023-02-18T09:36:26.708Z,2.03
2023-02-18T09:38:56.336Z,3.13
2023-02-18T09:41:31.539Z,6.70
2023-02-18T09:44:02.946Z,2.50
2023-02-18T09:46:33.543Z,4.00
2023-02-18T09:49:03.701Z,2.30
2023-02-18T09:51:31.868Z,1.70
2023-02-18T09:54:01.392Z,1.47
2023-02-18T09:56:32.410Z,5.90
2023-02-18T09:59:05.250Z,1.37
2023-02-18T10:01:37.418Z,4.00
2023-02-18T10:04:12.929Z,1.67
2023-02-18T10:06:40.998Z,2.20
2023-02-18T10:09:18.160Z,2.63
2023-02-18T10:11:49.677Z,2.30
2023-02-18T10:14:18.093Z,1.60
2023-02-18T10:16:47.450Z,2.57
2023-02-18T10:19:29.328Z,2.90
2023-02-18T10:21:59.384Z,1.27
2023-02-18T10:24:34.171Z,1.30
2023-02-18T10:27:08.201Z,3.90
2023-02-18T10:29:39.574Z,2.10
2023-02-18T10:32:18.211Z,4.73
2023-02-18T10:34:53.510Z,4.00
2023-02-18T10:37:47.764Z,10.53
2023-02-18T10:40:23.380Z,1.93
2023-02-18T10:43:04.893Z,3.23
2023-02-18T10:45:44.554Z,1.37
2023-02-18T10:48:33.739Z,1.10
2023-02-18T10:51:11.740Z,1.77
2023-02-18T10:53:43.272Z,2.20
2023-02-18T10:56:35.519Z,16.63
2023-02-18T10:59:10.661Z,1.37
2023-02-18T11:01:39.333Z,4.30
2023-02-18T11:04:13.929Z,2.30
2023-02-18T11:06:45.169Z,1.80
2023-02-18T11:09:31.876Z,2.40
2023-02-18T11:12:09.059Z,4.77
2023-02-18T11:14:46.063Z,1.40
2023-02-18T11:17:23.550Z,7.00
2023-02-18T11:19:57.283Z,4.43
2023-02-18T11:22:29.308Z,5.70
2023-02-18T11:24:59.006Z,10.60
2023-02-18T11:27:32.543Z,3.20
2023-02-18T11:30:06.906Z,6.80
2023-02-18T11:32:37.407Z,1.70
2023-02-18T11:35:06.425Z,3.10
2023-02-18T11:37:36.053Z,1.80
2023-02-18T11:40:04.624Z,1.60
2023-02-18T11:42:34.004Z,3.57
2023-02-18T11:45:05.168Z,3.73
2023-02-18T11:47:36.424Z,3.20
2023-02-18T11:50:17.052Z,4.00
2023-02-18T11:52:47.258Z,2.60
2023-02-18T11:55:18.901Z,2.37
2023-02-18T11:57:51.763Z,1.70
2023-02-18T12:00:25.451Z,4.83
2023-02-18T12:02:56.516Z,5.00
2023-02-18T12:05:27.165Z,2.30
2023-02-18T12:08:00.784Z,4.40
2023-02-18T12:10:32.556Z,5.03
2023-02-18T12:13:08.034Z,1.80
2023-02-18T12:15:49.615Z,1.97
2023-02-18T12:18:38.670Z,6.00
2023-02-18T12:21:23.642Z,1.60
2023-02-18T12:24:04.167Z,4.50
2023-02-18T12:26:45.266Z,2.83
2023-02-18T12:29:33.187Z,2.30
2023-02-18T12:32:13.968Z,5.90
2023-02-18T12:34:54.118Z,4.03
2023-02-18T12:37:41.137Z,3.30
2023-02-18T12:40:39.105Z,1.73
2023-02-18T12:43:13.743Z,4.87
2023-02-18T12:45:59.141Z,1.77
2023-02-18T12:48:50.421Z,2.67
2023-02-18T12:51:30.451Z,2.30
2023-02-18T12:54:20.863Z,13.43
2023-02-18T12:57:22.501Z,2.40
2023-02-18T13:00:14.175Z,3.97
2023-02-18T13:03:12.553Z,3.30
2023-02-18T13:05:50.989Z,2.40
2023-02-18T13:08:35.940Z,6.63
2023-02-18T13:11:21.381Z,3.40
2023-02-18T13:13:57.749Z,4.33
2023-02-18T13:16:26.973Z,3.80
2023-02-18T13:19:02.916Z,6.33
2023-02-18T13:21:32.219Z,8.10
2023-02-18T13:24:03.387Z,4.03
2023-02-18T13:26:34.215Z,3.77
2023-02-18T13:29:15.607Z,4.53
2023-02-18T13:31:53.640Z,2.33
2023-02-18T13:34:30.201Z,5.03
2023-02-18T13:37:07.801Z,2.70
2023-02-18T13:39:37.370Z,3.67
2023-02-18T13:42:28.264Z,3.47
2023-02-18T13:45:28.272Z,5.40
2023-02-18T13:47:57.538Z,4.07
2023-02-18T13:50:33.493Z,2.97
2023-02-18T13:53:24.871Z,4.63
2023-02-18T13:55:56.916Z,7.97
2023-02-18T13:58:30.294Z,4.20
2023-02-18T14:01:03.621Z,5.13
2023-02-18T14:03:53.175Z,6.50
2023-02-18T14:06:24.885Z,5.27
2023-02-18T14:09:03.399Z,4.80
2023-02-18T14:11:49.749Z,9.47
2023-02-18T14:14:35.683Z,3.43
2023-02-18T14:17:31.664Z,8.63
2023-02-18T14:20:33.288Z,9.40
2023-02-18T14:23:02.825Z,3.97
2023-02-18T14:25:39.197Z,12.20
2023-02-18T14:28:38.568Z,6.27
2023-02-18T14:31:26.114Z,8.93
2023-02-18T14:34:29.431Z,8.30
2023-02-18T14:37:11.634Z,4.53
2023-02-18T14:39:51.538Z,3.47
2023-02-18T14:42:30.528Z,5.90
2023-02-18T14:45:18.331Z,7.47
2023-02-18T14:48:14.572Z,3.30
2023-02-18T14:50:49.428Z,9.50
2023-02-18T14:53:21.333Z,5.63
2023-02-18T14:55:54.894Z,7.40
2023-02-18T14:58:31.241Z,8.13
2023-02-18T15:01:06.480Z,10.63
2023-02-18T15:03:34.509Z,5.23
2023-02-18T15:06:02.492Z,3.40
2023-02-18T15:08:39.850Z,4.20
2023-02-18T15:11:09.782Z,3.53
2023-02-18T15:13:44.150Z,5.07
2023-02-18T15:16:17.345Z,3.93
2023-02-18T15:18:52.610Z,9.60
2023-02-18T15:21:25.584Z,9.27
2023-02-18T15:23:53.963Z,10.90
2023-02-18T15:26:23.644Z,3.90
2023-02-18T15:28:59.126Z,3.73
2023-02-18T15:31:28.822Z,6.00
2023-02-18T15:33:57.181Z,5.67
2023-02-18T15:36:27.108Z,6.00
2023-02-18T15:38:57.272Z,3.87
2023-02-18T15:41:26.856Z,5.70
2023-02-18T15:43:56.881Z,8.10
2023-02-18T15:46:26.343Z,5.23
2023-02-18T15:48:56.984Z,6.00
2023-02-18T15:51:28.477Z,4.97
2023-02-18T15:54:00.675Z,4.30
2023-02-18T15:56:35.055Z,5.20
2023-02-18T15:59:11.098Z,4.00
2023-02-18T16:01:39.337Z,4.87
2023-02-18T16:04:08.387Z,4.10
2023-02-18T16:06:39.574Z,4.93
2023-02-18T16:09:14.608Z,5.07
2023-02-18T16:11:47.601Z,6.23
2023-02-18T16:14:25.425Z,8.30
2023-02-18T16:17:08.263Z,6.10
2023-02-18T16:19:49.116Z,7.40
2023-02-18T16:22:27.550Z,6.93
2023-02-18T16:24:58.623Z,3.20
2023-02-18T16:27:33.838Z,3.90
2023-02-18T16:30:05.744Z,4.03
2023-02-18T16:32:33.778Z,3.53
2023-02-18T16:35:03.505Z,3.87
2023-02-18T16:37:41.163Z,3.37
2023-02-18T16:40:29.087Z,5.20
2023-02-18T16:43:00.776Z,3.27
2023-02-18T16:45:37.465Z,14.40
2023-02-18T16:48:06.671Z,4.30
2023-02-18T16:50:35.486Z,4.93
2023-02-18T16:53:03.532Z,2.73
2023-02-18T16:55:31.894Z,9.13
2023-02-18T16:58:01.324Z,3.47
2023-02-18T17:00:29.318Z,4.10
2023-02-18T17:02:59.608Z,4.93
2023-02-18T17:05:29.896Z,9.60
2023-02-18T17:08:05.752Z,3.43
2023-02-18T17:10:33.742Z,3.83
2023-02-18T17:13:03.070Z,3.63
2023-02-18T17:15:34.521Z,6.50
2023-02-18T17:18:04.581Z,5.90
2023-02-18T17:20:34.395Z,3.17
2023-02-18T17:23:02.399Z,3.80
2023-02-18T17:25:33.729Z,3.30
2023-02-18T17:28:03.498Z,4.17
2023-02-18T17:30:32.940Z,3.33
2023-02-18T17:33:03.240Z,2.37
2023-02-18T17:35:31.760Z,2.87
2023-02-18T17:38:00.384Z,4.90
2023-02-18T17:40:31.089Z,3.70
2023-02-18T17:42:59.195Z,5.77
2023-02-18T17:45:31.954Z,3.10
2023-02-18T17:48:01.140Z,3.10
2023-02-18T17:50:30.977Z,5.37
2023-02-18T17:52:59.210Z,4.37
2023-02-18T17:55:28.970Z,3.33
2023-02-18T17:57:57.583Z,2.83
2023-02-18T18:00:29.301Z,4.93
2023-02-18T18:02:57.295Z,3.77
2023-02-18T18:05:26.722Z,5.53
2023-02-18T18:07:54.820Z,3.67
2023-02-18T18:10:28.391Z,6.37
2023-02-18T18:12:56.616Z,9.87
2023-02-18T18:15:29.814Z,7.00
2023-02-18T18:17:59.314Z,7.20
2023-02-18T18:20:28.923Z,7.47
2023-02-18T18:22:59.364Z,6.13
2023-02-18T18:25:29.954Z,7.10
2023-02-18T18:27:58.258Z,4.40
2023-02-18T18:30:29.958Z,6.03
2023-02-18T18:32:58.802Z,5.57
2023-02-18T18:35:29.040Z,7.27
2023-02-18T18:37:57.450Z,7.53
2023-02-18T18:40:32.293Z,5.47
2023-02-18T18:43:26.246Z,5.87
2023-02-18T18:45:56.295Z,5.20
2023-02-18T18:48:25.248Z,3.57
2023-02-18T18:50:54.609Z,5.30
2023-02-18T18:53:24.935Z,5.43
2023-02-18T18:55:54.852Z,6.97
2023-02-18T18:58:24.807Z,5.97
2023-02-18T19:00:57.138Z,5.30
2023-02-18T19:03:27.322Z,6.30
2023-02-18T19:05:55.856Z,4.80
2023-02-18T19:08:24.228Z,6.50
2023-02-18T19:10:53.612Z,8.93
2023-02-18T19:13:23.333Z,6.20
2023-02-18T19:15:54.752Z,7.60
2023-02-18T19:18:24.544Z,4.97
2023-02-18T19:20:52.834Z,4.83
2023-02-18T19:23:21.001Z,5.60
2023-02-18T19:25:49.084Z,11.33
2023-02-18T19:28:18.016Z,8.60
2023-02-18T19:30:47.331Z,5.90
2023-02-18T19:33:16.150Z,8.43
2023-02-18T19:35:45.882Z,7.90
2023-02-18T19:38:16.517Z,7.00
2023-02-18T19:40:46.152Z,7.07
2023-02-18T19:43:14.164Z,5.30
2023-02-18T19:45:43.269Z,5.90
2023-02-18T19:48:12.169Z,12.30
2023-02-18T19:50:42.264Z,6.90
2023-02-18T19:53:12.460Z,7.20
2023-02-18T19:55:40.720Z,16.60
2023-02-18T19:58:08.809Z,7.97
2023-02-18T20:00:36.860Z,9.67
2023-02-18T20:03:04.926Z,16.00
2023-02-18T20:05:32.927Z,9.80
2023-02-18T20:08:00.947Z,10.03
2023-02-18T20:10:30.357Z,7.57
2023-02-18T20:12:58.401Z,8.83
2023-02-18T20:15:27.353Z,7.07
2023-02-18T20:17:55.341Z,6.23
2023-02-18T20:20:23.480Z,6.20
2023-02-18T20:22:51.474Z,6.17
2023-02-18T20:25:19.597Z,6.77
2023-02-18T20:28:00.210Z,6.47
2023-02-18T20:30:28.847Z,8.70
2023-02-18T20:32:56.904Z,9.90
2023-02-18T20:35:25.023Z,10.27
2023-02-18T20:37:53.043Z,9.83
2023-02-18T20:40:21.049Z,8.90
2023-02-18T20:42:50.604Z,7.93
2023-02-18T20:45:18.859Z,9.27
2023-02-18T20:47:46.845Z,9.53
2023-02-18T20:50:15.829Z,7.40
2023-02-18T20:52:43.816Z,14.20
2023-02-18T20:55:11.924Z,9.20
2023-02-18T20:57:39.870Z,6.80
2023-02-18T21:00:10.705Z,7.40
2023-02-18T21:02:38.707Z,9.80
2023-02-18T21:05:07.222Z,12.80
2023-02-18T21:07:36.356Z,9.83
2023-02-18T21:10:05.102Z,8.07
2023-02-18T21:12:33.093Z,10.03
2023-02-18T21:15:01.066Z,7.67
2023-02-18T21:17:30.403Z,10.90
2023-02-18T21:20:00.198Z,8.80
2023-02-18T21:22:28.201Z,9.83
2023-02-18T21:24:56.198Z,7.27
2023-02-18T21:27:24.196Z,9.03
2023-02-18T21:29:52.279Z,8.40
2023-02-18T21:32:20.354Z,5.00
2023-02-18T21:34:49.707Z,6.53
2023-02-18T21:37:17.722Z,7.63
2023-02-18T21:39:45.644Z,6.77
2023-02-18T21:42:13.647Z,7.07
2023-02-18T21:44:42.934Z,4.83
2023-02-18T21:47:12.194Z,7.67
2023-02-18T21:49:40.394Z,11.33
2023-02-18T21:52:09.891Z,7.17
2023-02-18T21:54:40.281Z,11.27
2023-02-18T21:57:11.156Z,13.50
2023-02-18T21:59:39.908Z,8.40
2023-02-18T22:02:13.860Z,6.90
2023-02-18T22:04:41.802Z,6.53
2023-02-18T22:07:11.152Z,6.90
2023-02-18T22:09:39.790Z,8.30
2023-02-18T22:12:08.792Z,11.53
2023-02-18T22:14:36.801Z,7.87
2023-02-18T22:17:05.042Z,9.30
2023-02-18T22:19:33.032Z,8.27
2023-02-18T22:22:02.501Z,7.63
2023-02-18T22:24:32.322Z,9.53
2023-02-18T22:27:01.476Z,8.87
2023-02-18T22:29:31.374Z,5.00
2023-02-18T22:31:59.580Z,8.27
2023-02-18T22:34:27.737Z,6.57
2023-02-18T22:36:55.754Z,6.33
2023-02-18T22:39:24.268Z,6.60
2023-02-18T22:41:53.721Z,6.93
2023-02-18T22:44:22.960Z,9.00
2023-02-18T22:46:51.288Z,7.07
2023-02-18T22:49:19.269Z,7.00
2023-02-18T22:51:47.283Z,6.00
2023-02-18T22:54:16.990Z,5.70
2023-02-18T22:56:45.611Z,7.27
2023-02-18T22:59:17.728Z,5.37
2023-02-18T23:01:49.099Z,5.93
2023-02-18T23:04:18.765Z,6.57
2023-02-18T23:06:48.006Z,4.47
2023-02-18T23:09:19.134Z,5.40
2023-02-18T23:11:50.187Z,7.53
2023-02-18T23:14:20.133Z,9.33
2023-02-18T23:17:08.142Z,8.57
2023-02-18T23:19:37.277Z,7.47
2023-02-18T23:22:05.498Z,9.73
2023-02-18T23:24:34.398Z,9.83
2023-02-18T23:27:02.772Z,5.47
2023-02-18T23:29:32.316Z,7.63
2023-02-18T23:32:00.309Z,7.47
2023-02-18T23:34:28.487Z,6.77
2023-02-18T23:36:57.151Z,8.47
2023-02-18T23:39:26.123Z,7.67
2023-02-18T23:41:54.551Z,7.93
2023-02-18T23:44:24.052Z,7.20
2023-02-18T23:46:53.920Z,5.97
2023-02-18T23:49:23.762Z,9.00
2023-02-18T23:51:52.638Z,7.70
2023-02-18T23:54:22.684Z,6.43
2023-02-18T23:56:50.681Z,6.97
2023-02-18T23:59:18.869Z,8.00
